createdAt,value
2018-02-17T00:01:39.805Z,0.50
2018-02-17T00:04:07.302Z,0.50
2018-02-17T00:06:34.830Z,0.50
2018-02-17T00:09:02.272Z,0.50
2018-02-17T00:11:30.545Z,0.50
2018-02-17T00:13:58.027Z,0.50
2018-02-17T00:16:26.274Z,0.50
2018-02-17T00:18:53.767Z,0.50
2018-02-17T00:21:22.009Z,0.50
2018-02-17T00:23:49.562Z,0.50
2018-02-17T00:26:17.778Z,0.50
2018-02-17T00:28:45.264Z,0.50
2018-02-17T00:31:12.739Z,0.60
2018-02-17T00:33:40.239Z,0.50
2018-02-17T00:36:09.691Z,0.60
2018-02-17T00:38:37.235Z,0.60
2018-02-17T00:41:05.510Z,0.60
2018-02-17T00:43:34.038Z,0.60
2018-02-17T00:46:01.524Z,0.60
2018-02-17T00:48:29.117Z,0.60
2018-02-17T00:50:57.366Z,0.50
2018-02-17T00:53:24.846Z,0.50
2018-02-17T00:55:53.103Z,0.60
2018-02-17T00:58:20.583Z,0.60
2018-02-17T01:00:48.726Z,0.50
2018-02-17T01:03:16.221Z,0.50
2018-02-17T01:05:44.499Z,0.60
2018-02-17T01:08:12.774Z,0.60
2018-02-17T01:10:41.027Z,0.60
2018-02-17T01:13:08.510Z,0.60
2018-02-17T01:15:36.758Z,0.50
2018-02-17T01:18:04.247Z,0.50
2018-02-17T01:20:31.731Z,0.50
2018-02-17T01:22:59.210Z,0.40
2018-02-17T01:25:26.707Z,0.40
2018-02-17T01:27:54.214Z,0.40
2018-02-17T01:30:21.699Z,0.40
2018-02-17T01:32:49.199Z,0.40
2018-02-17T01:35:16.677Z,0.50
2018-02-17T01:37:44.926Z,0.40
2018-02-17T01:40:12.503Z,0.40
2018-02-17T01:42:40.753Z,0.40
2018-02-17T01:45:08.232Z,0.40
2018-02-17T01:47:35.799Z,0.40
2018-02-17T01:50:04.059Z,0.30
2018-02-17T01:52:31.543Z,0.30
2018-02-17T01:54:59.806Z,0.30
2018-02-17T01:57:28.051Z,0.30
2018-02-17T01:59:55.532Z,0.30
2018-02-17T02:02:23.039Z,0.30
2018-02-17T02:04:50.572Z,0.20
2018-02-17T02:07:18.820Z,0.30
2018-02-17T02:09:47.078Z,0.20
2018-02-17T02:12:14.550Z,0.20
2018-02-17T02:14:42.023Z,0.20
2018-02-17T02:17:09.522Z,0.20
2018-02-17T02:19:36.993Z,0.20
2018-02-17T02:22:04.480Z,0.20
2018-02-17T02:24:31.976Z,0.10
2018-02-17T02:27:00.250Z,0.10
2018-02-17T02:29:28.491Z,0.00
2018-02-17T02:31:56.092Z,0.00
2018-02-17T02:34:24.346Z,0.00
2018-02-17T02:36:51.846Z,0.00
2018-02-17T02:39:19.336Z,0.00
2018-02-17T02:41:46.870Z,0.00
2018-02-17T02:44:14.355Z,0.00
2018-02-17T02:46:41.845Z,0.00
2018-02-17T02:49:10.100Z,0.00
2018-02-17T02:51:37.599Z,0.00
2018-02-17T02:54:05.864Z,0.00
2018-02-17T02:56:34.115Z,0.10
2018-02-17T02:59:01.594Z,0.10
2018-02-17T03:01:29.172Z,0.10
2018-02-17T03:03:57.431Z,0.10
2018-02-17T03:06:25.801Z,0.20
2018-02-17T03:08:53.299Z,0.10
2018-02-17T03:11:20.774Z,0.10
2018-02-17T03:13:48.256Z,0.10
2018-02-17T03:16:15.755Z,0.10
2018-02-17T03:18:44.004Z,0.10
2018-02-17T03:21:12.302Z,0.00
2018-02-17T03:23:40.563Z,0.00
2018-02-17T03:26:08.040Z,0.00
2018-02-17T03:28:36.284Z,0.00
2018-02-17T03:31:03.883Z,0.00
2018-02-17T03:33:32.122Z,-0.10
2018-02-17T03:35:59.710Z,-0.10
2018-02-17T03:38:27.980Z,-0.10
2018-02-17T03:40:55.559Z,-0.10
2018-02-17T03:43:23.811Z,-0.20
2018-02-17T03:45:51.390Z,-0.20
2018-02-17T03:48:19.657Z,-0.30
2018-02-17T03:50:47.928Z,-0.30
2018-02-17T03:53:15.431Z,-0.30
2018-02-17T03:55:42.916Z,-0.20
2018-02-17T03:58:10.393Z,-0.30
2018-02-17T04:00:37.887Z,-0.30
2018-02-17T04:03:05.386Z,-0.30
2018-02-17T04:05:32.889Z,-0.30
2018-02-17T04:08:01.152Z,-0.40
2018-02-17T04:10:28.643Z,-0.40
2018-02-17T04:12:56.126Z,-0.40
2018-02-17T04:15:23.618Z,-0.40
2018-02-17T04:17:52.626Z,-0.40
2018-02-17T04:20:20.871Z,-0.40
2018-02-17T04:22:48.371Z,-0.40
2018-02-17T04:25:15.863Z,-0.50
2018-02-17T04:27:43.355Z,-0.50
2018-02-17T04:30:11.620Z,-0.50
2018-02-17T04:32:39.111Z,-0.60
2018-02-17T04:35:07.363Z,-0.70
2018-02-17T04:37:34.859Z,-0.70
2018-02-17T04:53:32.387Z,-0.70
2018-02-17T04:55:59.893Z,-0.70
2018-02-17T04:58:31.072Z,-0.70
2018-02-17T05:14:24.726Z,-0.90
2018-02-17T05:16:55.656Z,-0.90
2018-02-17T05:19:24.706Z,-0.90
2018-02-17T05:22:04.805Z,-0.90
2018-02-17T05:37:57.776Z,-0.90
2018-02-17T05:53:45.705Z,-0.90
2018-02-17T05:56:13.983Z,-0.90
2018-02-17T05:58:42.254Z,-0.90
2018-02-17T06:01:09.752Z,-0.90
2018-02-17T06:03:37.292Z,-0.90
2018-02-17T06:06:05.539Z,-0.90
2018-02-17T06:08:33.102Z,-0.90
2018-02-17T06:11:00.574Z,-0.90
2018-02-17T06:13:28.830Z,-0.90
2018-02-17T06:15:56.415Z,-0.90
2018-02-17T06:18:24.675Z,-1.00
2018-02-17T06:20:52.159Z,-0.90
2018-02-17T06:23:19.654Z,-1.00
2018-02-17T06:25:47.138Z,-1.00
2018-02-17T06:28:14.721Z,-1.00
2018-02-17T06:30:42.982Z,-1.00
2018-02-17T06:33:10.471Z,-1.00
2018-02-17T06:35:38.019Z,-0.90
2018-02-17T06:38:06.293Z,-0.80
2018-02-17T06:40:34.566Z,-0.70
2018-02-17T06:43:02.812Z,-0.60
2018-02-17T06:45:30.401Z,-0.60
2018-02-17T06:47:58.682Z,-0.50
2018-02-17T06:50:26.967Z,-0.50
2018-02-17T06:52:55.230Z,-0.40
2018-02-17T06:55:23.483Z,-0.40
2018-02-17T06:57:51.722Z,-0.30
2018-02-17T07:00:19.218Z,-0.40
2018-02-17T07:02:46.703Z,-0.20
2018-02-17T07:05:14.952Z,0.10
2018-02-17T07:07:42.443Z,0.10
2018-02-17T07:10:09.919Z,0.20
2018-02-17T07:12:37.404Z,0.30
2018-02-17T07:15:04.897Z,0.30
2018-02-17T07:17:32.391Z,0.30
2018-02-17T07:19:59.871Z,0.20
2018-02-17T07:22:27.358Z,0.10
2018-02-17T07:24:54.834Z,0.10
2018-02-17T07:27:23.094Z,0.00
2018-02-17T07:29:50.578Z,0.00
2018-02-17T07:32:18.823Z,0.00
2018-02-17T07:34:46.316Z,-0.10
2018-02-17T07:37:14.574Z,-0.10
2018-02-17T07:39:42.061Z,-0.10
2018-02-17T07:42:09.556Z,-0.10
2018-02-17T07:44:37.151Z,-0.10
2018-02-17T07:47:06.167Z,-0.10
2018-02-17T07:49:34.410Z,0.00
2018-02-17T07:52:01.895Z,0.00
2018-02-17T07:54:30.141Z,0.00
2018-02-17T07:56:57.619Z,-0.10
2018-02-17T07:59:25.880Z,0.00
2018-02-17T08:01:53.358Z,0.00
2018-02-17T08:04:21.610Z,0.00
2018-02-17T08:06:49.103Z,0.00
2018-02-17T08:09:16.651Z,0.10
2018-02-17T08:11:44.892Z,0.20
2018-02-17T08:14:12.383Z,0.20
2018-02-17T08:16:40.631Z,0.30
2018-02-17T08:19:08.108Z,0.30
2018-02-17T08:21:36.394Z,0.30
2018-02-17T08:24:04.638Z,0.40
2018-02-17T08:26:32.123Z,0.40
2018-02-17T08:28:59.616Z,0.50
2018-02-17T08:31:27.122Z,0.60
2018-02-17T08:33:54.711Z,0.70
2018-02-17T08:36:22.999Z,0.70
2018-02-17T08:38:51.267Z,0.90
2018-02-17T08:41:19.511Z,1.00
2018-02-17T08:43:46.997Z,1.00
2018-02-17T08:46:15.246Z,0.90
2018-02-17T08:48:42.727Z,0.90
2018-02-17T08:51:11.011Z,1.00
2018-02-17T08:53:39.291Z,1.00
2018-02-17T08:56:07.539Z,1.00
2018-02-17T08:58:35.839Z,1.00
2018-02-17T09:01:04.087Z,1.10
2018-02-17T09:03:31.596Z,1.10
2018-02-17T09:05:59.117Z,1.40
2018-02-17T09:08:26.599Z,1.70
2018-02-17T09:10:54.847Z,2.20
2018-02-17T09:13:22.343Z,2.20
2018-02-17T09:15:49.887Z,2.30
2018-02-17T09:18:18.258Z,2.60
2018-02-17T09:20:45.746Z,2.60
2018-02-17T09:23:13.227Z,3.00
2018-02-17T09:25:40.707Z,2.90
2018-02-17T09:28:08.302Z,2.90
2018-02-17T09:30:36.575Z,3.30
2018-02-17T09:33:04.813Z,3.50
2018-02-17T09:35:32.309Z,3.50
2018-02-17T09:38:00.603Z,3.80
2018-02-17T09:40:28.082Z,3.80
2018-02-17T09:42:55.572Z,3.80
2018-02-17T09:45:23.054Z,3.70
2018-02-17T09:47:50.544Z,3.60
2018-02-17T09:50:18.032Z,4.00
2018-02-17T09:52:45.540Z,4.20
2018-02-17T09:55:13.770Z,4.60
2018-02-17T09:57:41.264Z,4.60
2018-02-17T10:00:08.738Z,4.40
2018-02-17T10:02:37.006Z,4.00
2018-02-17T10:05:05.272Z,3.80
2018-02-17T10:07:33.518Z,3.90
2018-02-17T10:10:01.005Z,3.90
2018-02-17T10:12:28.510Z,3.90
2018-02-17T10:14:55.993Z,4.20
2018-02-17T10:17:23.477Z,4.20
2018-02-17T10:19:51.051Z,4.20
2018-02-17T10:22:19.326Z,3.70
2018-02-17T10:24:47.570Z,3.50
2018-02-17T10:27:15.164Z,3.50
2018-02-17T10:29:43.462Z,3.10
2018-02-17T10:32:11.002Z,3.10
2018-02-17T10:34:39.254Z,2.60
2018-02-17T10:37:06.840Z,2.50
2018-02-17T10:39:35.090Z,2.70
2018-02-17T10:42:03.353Z,2.70
2018-02-17T10:44:30.831Z,2.70
2018-02-17T10:46:58.317Z,2.70
2018-02-17T10:49:26.587Z,2.70
2018-02-17T10:51:54.829Z,2.70
2018-02-17T10:54:22.313Z,2.70
2018-02-17T10:56:50.606Z,2.90
2018-02-17T10:59:18.851Z,2.90
2018-02-17T11:01:47.051Z,2.90
2018-02-17T11:04:15.326Z,3.00
2018-02-17T11:06:43.563Z,3.10
2018-02-17T11:09:11.063Z,3.10
2018-02-17T11:11:39.315Z,3.00
2018-02-17T11:14:06.895Z,3.00
2018-02-17T11:16:35.147Z,3.00
2018-02-17T11:19:02.653Z,3.00
2018-02-17T11:21:30.222Z,2.90
2018-02-17T11:23:57.754Z,2.90
2018-02-17T11:26:26.026Z,2.60
2018-02-17T11:28:54.300Z,2.60
2018-02-17T11:31:22.546Z,2.80
2018-02-17T11:33:50.044Z,2.70
2018-02-17T11:36:18.308Z,2.80
2018-02-17T11:38:46.556Z,2.80
2018-02-17T11:41:14.046Z,2.80
2018-02-17T11:43:42.290Z,3.10
2018-02-17T11:46:09.827Z,3.00
2018-02-17T11:48:37.318Z,3.10
2018-02-17T11:51:04.806Z,3.30
2018-02-17T11:53:33.081Z,3.20
2018-02-17T11:56:00.547Z,3.20
2018-02-17T11:58:28.793Z,3.50
2018-02-17T12:00:56.277Z,3.40
2018-02-17T12:03:24.563Z,3.50
2018-02-17T12:05:52.823Z,3.40
2018-02-17T12:08:21.067Z,3.40
2018-02-17T12:10:48.562Z,3.30
2018-02-17T12:13:16.815Z,3.40
2018-02-17T12:15:44.389Z,3.40
2018-02-17T12:18:12.659Z,3.20
2018-02-17T12:20:40.143Z,3.10
2018-02-17T12:23:07.619Z,3.10
2018-02-17T12:25:35.105Z,3.10
2018-02-17T12:28:02.871Z,3.00
2018-02-17T12:30:30.366Z,3.00
2018-02-17T12:32:58.639Z,2.90
2018-02-17T12:35:26.897Z,2.80
2018-02-17T12:37:54.374Z,2.80
2018-02-17T12:40:22.655Z,2.60
2018-02-17T12:42:50.900Z,2.50
2018-02-17T12:45:18.386Z,2.50
2018-02-17T12:47:46.651Z,2.20
2018-02-17T12:50:14.890Z,2.10
2018-02-17T12:52:42.366Z,2.10
2018-02-17T12:55:09.958Z,2.00
2018-02-17T12:57:38.214Z,1.90
2018-02-17T13:00:07.198Z,1.90
2018-02-17T13:02:34.687Z,1.90
2018-02-17T13:05:03.001Z,1.90
2018-02-17T13:07:30.504Z,1.90
2018-02-17T13:09:57.993Z,1.90
2018-02-17T13:12:26.244Z,2.00
2018-02-17T13:14:53.742Z,2.00
2018-02-17T13:17:21.274Z,2.00
2018-02-17T13:19:49.571Z,2.10
2018-02-17T13:22:17.823Z,2.00
2018-02-17T13:24:45.396Z,2.00
2018-02-17T13:27:13.633Z,2.10
2018-02-17T13:29:41.103Z,2.10
2018-02-17T13:32:10.106Z,2.10
2018-02-17T13:34:37.748Z,2.10
2018-02-17T13:37:05.231Z,2.20
2018-02-17T13:39:32.801Z,2.20
2018-02-17T13:42:01.051Z,2.20
2018-02-17T13:44:28.525Z,2.20
2018-02-17T13:46:56.815Z,2.20
2018-02-17T13:49:25.091Z,2.30
2018-02-17T13:51:53.339Z,2.40
2018-02-17T13:54:21.639Z,2.40
2018-02-17T13:56:49.907Z,2.40
2018-02-17T13:59:17.385Z,2.40
2018-02-17T14:01:45.630Z,2.50
2018-02-17T14:04:13.111Z,2.50
2018-02-17T14:06:41.357Z,2.50
2018-02-17T14:09:08.948Z,2.50
2018-02-17T14:11:37.218Z,2.40
2018-02-17T14:14:05.499Z,2.40
2018-02-17T14:16:32.995Z,2.40
2018-02-17T14:19:00.482Z,2.40
2018-02-17T14:21:27.954Z,2.40
2018-02-17T14:23:55.533Z,2.40
2018-02-17T14:26:23.808Z,2.30
2018-02-17T14:28:52.056Z,2.30
2018-02-17T14:31:19.647Z,2.30
2018-02-17T14:33:47.895Z,2.20
2018-02-17T14:36:15.372Z,2.10
2018-02-17T14:38:43.644Z,2.10
2018-02-17T14:41:11.124Z,2.10
2018-02-17T14:43:39.363Z,2.10
2018-02-17T14:46:06.855Z,2.10
2018-02-17T14:48:35.103Z,2.00
2018-02-17T14:51:02.581Z,2.00
2018-02-17T14:53:30.843Z,2.00
2018-02-17T14:55:58.483Z,2.00
2018-02-17T14:58:25.958Z,2.10
2018-02-17T15:00:53.447Z,2.10
2018-02-17T15:03:21.718Z,2.10
2018-02-17T15:05:49.967Z,2.10
2018-02-17T15:08:18.263Z,2.10
2018-02-17T15:10:46.538Z,2.00
2018-02-17T15:13:14.083Z,2.00
2018-02-17T15:15:41.567Z,2.00
2018-02-17T15:18:09.838Z,2.00
2018-02-17T15:20:38.106Z,2.00
2018-02-17T15:23:06.360Z,2.00
2018-02-17T15:25:33.830Z,2.00
2018-02-17T15:28:01.306Z,1.90
2018-02-17T15:30:29.562Z,1.90
2018-02-17T15:32:57.288Z,1.80
2018-02-17T15:35:24.786Z,1.80
2018-02-17T15:37:52.286Z,1.80
2018-02-17T15:40:19.759Z,1.70
2018-02-17T15:42:47.244Z,1.70
2018-02-17T15:45:14.722Z,1.80
2018-02-17T15:47:42.196Z,1.70
2018-02-17T15:50:10.441Z,1.70
2018-02-17T15:52:38.038Z,1.70
2018-02-17T15:55:06.278Z,1.60
2018-02-17T15:57:33.775Z,1.60
2018-02-17T16:00:02.032Z,1.60
2018-02-17T16:02:29.613Z,1.60
2018-02-17T16:04:57.859Z,1.50
2018-02-17T16:07:25.435Z,1.60
2018-02-17T16:09:53.691Z,1.50
2018-02-17T16:12:21.174Z,1.50
2018-02-17T16:14:49.431Z,1.50
2018-02-17T16:17:16.903Z,1.50
2018-02-17T16:19:45.142Z,1.40
2018-02-17T16:22:12.680Z,1.50
2018-02-17T16:24:40.189Z,1.40
2018-02-17T16:27:07.759Z,1.40
2018-02-17T16:29:36.040Z,1.30
2018-02-17T16:32:04.281Z,1.30
2018-02-17T16:34:31.786Z,1.30
2018-02-17T16:37:00.106Z,1.30
2018-02-17T16:39:27.610Z,1.20
2018-02-17T16:41:55.872Z,1.30
2018-02-17T16:44:23.434Z,1.30
2018-02-17T16:46:50.919Z,1.30
2018-02-17T16:49:18.466Z,1.30
2018-02-17T16:51:47.674Z,1.20
2018-02-17T16:54:15.170Z,1.20
2018-02-17T16:56:42.682Z,1.20
2018-02-17T16:59:10.984Z,1.10
2018-02-17T17:01:38.454Z,1.10
2018-02-17T17:04:05.936Z,1.10
2018-02-17T17:06:33.544Z,1.10
2018-02-17T17:09:01.792Z,1.10
2018-02-17T17:11:29.278Z,1.10
2018-02-17T17:13:57.553Z,1.00
2018-02-17T17:16:25.797Z,1.00
2018-02-17T17:18:53.385Z,0.90
2018-02-17T17:21:21.660Z,1.00
2018-02-17T17:23:49.935Z,1.00
2018-02-17T17:26:18.179Z,0.90
2018-02-17T17:28:45.675Z,0.90
2018-02-17T17:31:14.194Z,0.90
2018-02-17T17:33:41.683Z,1.00
2018-02-17T17:36:09.179Z,1.00
2018-02-17T17:38:37.422Z,1.00
2018-02-17T17:41:04.899Z,1.00
2018-02-17T17:43:32.399Z,1.00
2018-02-17T17:45:59.878Z,1.00
2018-02-17T17:48:27.382Z,1.00
2018-02-17T17:50:55.659Z,1.00
2018-02-17T17:53:23.898Z,1.00
2018-02-17T17:55:51.366Z,0.90
2018-02-17T17:58:18.869Z,0.90
2018-02-17T18:00:46.402Z,0.90
2018-02-17T18:03:13.890Z,0.90
2018-02-17T18:05:41.378Z,0.90
2018-02-17T18:08:08.878Z,0.90
2018-02-17T18:10:37.150Z,0.90
2018-02-17T18:13:06.150Z,0.90
2018-02-17T18:15:34.423Z,0.90
2018-02-17T18:18:02.701Z,0.90
2018-02-17T18:20:30.998Z,0.90
2018-02-17T18:22:59.263Z,0.90
2018-02-17T18:25:27.507Z,0.90
2018-02-17T18:27:55.018Z,0.90
2018-02-17T18:30:22.497Z,0.90
2018-02-17T18:32:49.983Z,0.90
2018-02-17T18:35:17.483Z,0.90
2018-02-17T18:37:45.739Z,0.90
2018-02-17T18:40:13.215Z,0.90
2018-02-17T18:42:41.579Z,0.90
2018-02-17T18:45:09.851Z,0.90
2018-02-17T18:47:37.423Z,0.90
2018-02-17T18:50:05.671Z,0.90
2018-02-17T18:52:33.151Z,0.90
2018-02-17T18:55:01.394Z,1.00
2018-02-17T18:57:28.881Z,1.00
2018-02-17T18:59:57.179Z,1.00
2018-02-17T19:02:24.671Z,0.90
2018-02-17T19:04:52.204Z,1.00
2018-02-17T19:07:19.642Z,1.00
2018-02-17T19:09:47.888Z,1.00
2018-02-17T19:12:15.378Z,1.00
2018-02-17T19:14:43.618Z,1.00
2018-02-17T19:17:11.101Z,1.00
2018-02-17T19:19:39.378Z,1.00
2018-02-17T19:22:06.864Z,1.00
2018-02-17T19:24:34.414Z,1.00
2018-02-17T19:27:02.673Z,1.10
2018-02-17T19:29:30.155Z,1.00
2018-02-17T19:31:57.675Z,1.10
2018-02-17T19:34:25.190Z,1.10
2018-02-17T19:36:52.711Z,1.00
2018-02-17T19:39:20.967Z,1.10
2018-02-17T19:41:49.235Z,1.10
2018-02-17T19:44:16.727Z,1.10
2018-02-17T19:46:44.975Z,1.10
2018-02-17T19:49:12.459Z,1.00
2018-02-17T19:51:40.699Z,1.10
2018-02-17T19:54:08.175Z,1.10
2018-02-17T19:56:37.173Z,1.00
2018-02-17T19:59:04.652Z,1.00
2018-02-17T20:01:32.891Z,1.10
2018-02-17T20:04:00.394Z,1.00
2018-02-17T20:06:27.874Z,1.10
2018-02-17T20:08:55.370Z,1.00
2018-02-17T20:11:22.849Z,1.00
2018-02-17T20:13:51.128Z,1.10
2018-02-17T20:16:18.594Z,1.00
2018-02-17T20:18:46.870Z,1.00
2018-02-17T20:21:15.116Z,1.00
2018-02-17T20:23:42.624Z,1.00
2018-02-17T20:26:10.168Z,1.00
2018-02-17T20:28:38.437Z,1.10
2018-02-17T20:31:06.683Z,1.10
2018-02-17T20:33:34.283Z,1.10
2018-02-17T20:36:02.528Z,1.10
2018-02-17T20:38:30.003Z,1.00
2018-02-17T20:40:57.571Z,1.00
2018-02-17T20:43:25.878Z,1.00
2018-02-17T20:45:53.299Z,1.00
2018-02-17T20:48:21.559Z,1.00
2018-02-17T20:50:50.571Z,1.00
2018-02-17T20:53:18.816Z,1.00
2018-02-17T20:55:46.407Z,0.90
2018-02-17T20:58:14.687Z,1.00
2018-02-17T21:00:42.935Z,0.90
2018-02-17T21:03:10.426Z,0.90
2018-02-17T21:05:38.694Z,0.90
2018-02-17T21:08:06.973Z,0.90
2018-02-17T21:10:35.238Z,0.80
2018-02-17T21:13:02.714Z,0.80
2018-02-17T21:15:30.997Z,0.90
2018-02-17T21:17:58.570Z,0.80
2018-02-17T21:20:26.051Z,0.80
2018-02-17T21:22:53.537Z,0.80
2018-02-17T21:25:22.536Z,0.80
2018-02-17T21:27:50.123Z,0.80
2018-02-17T21:30:18.369Z,0.80
2018-02-17T21:32:45.867Z,0.80
2018-02-17T21:35:13.351Z,0.80
2018-02-17T21:37:40.841Z,0.80
2018-02-17T21:40:08.327Z,0.80
2018-02-17T21:42:36.600Z,0.70
2018-02-17T21:45:04.867Z,0.70
2018-02-17T21:47:32.367Z,0.70
2018-02-17T21:49:59.839Z,0.70
2018-02-17T21:52:27.352Z,0.70
2018-02-17T21:54:55.674Z,0.70
2018-02-17T21:57:23.138Z,0.70
2018-02-17T21:59:50.625Z,0.70
2018-02-17T22:02:18.118Z,0.70
2018-02-17T22:04:46.359Z,0.70
2018-02-17T22:07:13.874Z,0.70
2018-02-17T22:09:41.362Z,0.70
2018-02-17T22:12:08.840Z,0.70
2018-02-17T22:14:36.326Z,0.70
2018-02-17T22:17:04.624Z,0.70
2018-02-17T22:19:32.105Z,0.60
2018-02-17T22:21:59.594Z,0.70
2018-02-17T22:24:27.180Z,0.70
2018-02-17T22:26:56.238Z,0.70
2018-02-17T22:29:23.715Z,0.60
2018-02-17T22:31:51.382Z,0.70
2018-02-17T22:34:19.634Z,0.70
2018-02-17T22:36:47.116Z,0.70
2018-02-17T22:39:15.401Z,0.70
2018-02-17T22:41:43.674Z,0.60
2018-02-17T22:44:11.953Z,0.60
2018-02-17T22:46:40.209Z,0.60
2018-02-17T22:49:08.534Z,0.60
2018-02-17T22:51:36.067Z,0.60
2018-02-17T22:54:04.319Z,0.60
2018-02-17T22:56:31.899Z,0.60
2018-02-17T22:59:00.223Z,0.60
2018-02-17T23:01:27.715Z,0.60
2018-02-17T23:03:55.974Z,0.60
2018-02-17T23:06:23.464Z,0.70
2018-02-17T23:08:50.954Z,0.60
2018-02-17T23:11:18.491Z,0.60
2018-02-17T23:13:46.764Z,0.70
2018-02-17T23:16:15.046Z,0.60
2018-02-17T23:18:43.294Z,0.70
2018-02-17T23:21:11.534Z,0.60
2018-02-17T23:23:39.021Z,0.60
2018-02-17T23:26:06.496Z,0.60
2018-02-17T23:28:35.514Z,0.60
2018-02-17T23:31:03.791Z,0.60
2018-02-17T23:33:32.064Z,0.60
2018-02-17T23:36:00.337Z,0.60
2018-02-17T23:38:28.611Z,0.60
2018-02-17T23:40:56.853Z,0.60
2018-02-17T23:43:25.115Z,0.60
2018-02-17T23:45:52.615Z,0.60
2018-02-17T23:48:20.859Z,0.60
2018-02-17T23:50:48.341Z,0.60
2018-02-17T23:53:15.822Z,0.60
2018-02-17T23:55:44.072Z,0.60
2018-02-17T23:58:11.556Z,0.60
